Time,TemperatureF,DewpointF,PressureIn,WindDirection,WindDirectionDegrees,WindSpeedMPH,WindSpeedGustMPH,Humidity,HourlyPrecipIn,Conditions,Clouds,dailyrainin,SoftwareType,DateUTC
2013-04-10 00:09:00,65.3,60.0,29.86,WSW,254,0.0,1.0,82,0.00,,,0.00,weatherlink.com 1.10,2013-04-10 04:09:00,
2013-04-10 00:24:00,64.4,60.0,29.86,WSW,254,0.0,3.0,85,0.00,,,0.00,weatherlink.com 1.10,2013-04-10 04:24:00,
2013-04-10 00:39:00,64.2,59.0,29.86,NW,310,2.0,7.0,84,0.00,,,0.00,weatherlink.com 1.10,2013-04-10 04:39:00,
2013-04-10 00:54:00,62.7,58.0,29.86,NW,319,6.0,7.0,85,0.00,,,0.00,weatherlink.com 1.10,2013-04-10 04:54:00,
2013-04-10 01:09:00,62.0,57.0,29.86,North,349,3.0,7.0,84,0.00,,,0.00,weatherlink.com 1.10,2013-04-10 05:09:00,
2013-04-10 01:25:00,60.7,56.0,29.87,NNW,343,6.0,9.0,84,0.00,,,0.00,weatherlink.com 1.10,2013-04-10 05:25:00,
2013-04-10 01:40:00,58.9,55.0,29.86,North,9,4.0,7.0,86,0.00,,,0.00,weatherlink.com 1.10,2013-04-10 05:40:00,
2013-04-10 01:55:00,58.2,54.0,29.86,ENE,59,1.0,6.0,87,0.00,,,0.00,weatherlink.com 1.10,2013-04-10 05:55:00,
2013-04-10 02:10:00,57.4,53.0,29.86,ENE,67,3.0,6.0,86,0.00,,,0.00,weatherlink.com 1.10,2013-04-10 06:10:00,
2013-04-10 02:25:00,56.9,53.0,29.86,ENE,59,3.0,4.0,88,0.00,,,0.00,weatherlink.com 1.10,2013-04-10 06:25:00,
2013-04-10 02:40:00,56.8,54.0,29.85,ENE,72,2.0,4.0,89,0.00,,,0.00,weatherlink.com 1.10,2013-04-10 06:40:00,
2013-04-10 02:55:00,56.8,54.0,29.85,ENE,72,0.0,2.0,89,0.00,,,0.00,weatherlink.com 1.10,2013-04-10 06:55:00,
2013-04-10 03:10:00,57.0,54.0,29.84,ENE,69,4.0,5.0,88,0.00,,,0.00,weatherlink.com 1.10,2013-04-10 07:10:00,
2013-04-10 03:25:00,56.8,53.0,29.83,East,86,5.0,5.0,88,0.00,,,0.00,weatherlink.com 1.10,2013-04-10 07:25:00,
2013-04-10 03:40:00,56.4,53.0,29.84,South,176,0.0,10.0,88,0.00,,,0.00,weatherlink.com 1.10,2013-04-10 07:40:00,
2013-04-10 03:55:00,55.0,52.0,29.84,East,83,2.0,14.0,88,0.00,,,0.00,weatherlink.com 1.10,2013-04-10 07:55:00,
2013-04-10 04:10:00,54.1,51.0,29.83,ENE,76,4.0,9.0,88,0.00,,,0.00,weatherlink.com 1.10,2013-04-10 08:10:00,
2013-04-10 04:25:00,53.4,50.0,29.83,East,97,6.0,9.0,89,0.00,,,0.00,weatherlink.com 1.10,2013-04-10 08:25:00,
2013-04-10 04:40:00,52.6,50.0,29.83,ESE,103,8.0,10.0,89,0.00,,,0.00,weatherlink.com 1.10,2013-04-10 08:40:00,
2013-04-10 04:55:00,52.5,50.0,29.83,ESE,107,4.0,8.0,90,0.00,,,0.00,weatherlink.com 1.10,2013-04-10 08:55:00,
2013-04-10 05:10:00,52.4,50.0,29.83,ESE,107,5.0,8.0,90,0.00,,,0.00,weatherlink.com 1.10,2013-04-10 09:10:00,
2013-04-10 05:25:00,52.2,49.0,29.83,ESE,115,7.0,9.0,90,0.00,,,0.00,weatherlink.com 1.10,2013-04-10 09:25:00,
2013-04-10 05:40:00,52.1,49.0,29.82,SE,136,5.0,9.0,90,0.00,,,0.00,weatherlink.com 1.10,2013-04-10 09:40:00,
2013-04-10 05:55:00,52.0,50.0,29.82,ESE,113,7.0,10.0,91,0.00,,,0.00,weatherlink.com 1.10,2013-04-10 09:55:00,
2013-04-10 06:10:00,51.9,49.0,29.81,SE,131,9.0,11.0,91,0.00,,,0.00,weatherlink.com 1.10,2013-04-10 10:10:00,
2013-04-10 06:25:00,51.7,49.0,29.81,SE,137,5.0,10.0,91,0.00,,,0.00,weatherlink.com 1.10,2013-04-10 10:25:00,
2013-04-10 06:40:00,51.6,49.0,29.80,ESE,119,4.0,9.0,92,0.00,,,0.00,weatherlink.com 1.10,2013-04-10 10:40:00,
2013-04-10 06:55:00,51.5,49.0,29.80,SE,138,7.0,10.0,92,0.00,,,0.00,weatherlink.com 1.10,2013-04-10 10:55:00,
2013-04-10 07:10:00,51.3,49.0,29.80,SE,134,5.0,10.0,93,0.00,,,0.00,weatherlink.com 1.10,2013-04-10 11:10:00,
2013-04-10 07:25:00,51.1,49.0,29.80,ESE,119,9.0,10.0,93,0.00,,,0.00,weatherlink.com 1.10,2013-04-10 11:25:00,
2013-04-10 07:40:00,51.2,50.0,29.80,SE,124,6.0,9.0,94,0.00,,,0.00,weatherlink.com 1.10,2013-04-10 11:40:00,
2013-04-10 07:56:00,51.3,50.0,29.79,East,100,6.0,11.0,94,0.00,,,0.00,weatherlink.com 1.10,2013-04-10 11:56:00,
2013-04-10 08:11:00,51.5,50.0,29.80,ESE,119,7.0,8.0,94,0.01,,,0.01,weatherlink.com 1.10,2013-04-10 12:11:00,
2013-04-10 08:26:00,51.6,50.0,29.80,ESE,117,4.0,8.0,95,0.01,,,0.01,weatherlink.com 1.10,2013-04-10 12:26:00,
2013-04-10 08:41:00,51.5,50.0,29.81,ESE,111,7.0,9.0,95,0.01,,,0.01,weatherlink.com 1.10,2013-04-10 12:41:00,
2013-04-10 08:56:00,51.6,50.0,29.83,North,5,6.0,8.0,95,0.03,,,0.03,weatherlink.com 1.10,2013-04-10 12:56:00,
2013-04-10 09:11:00,51.4,50.0,29.82,NE,34,2.0,5.0,95,0.03,,,0.04,weatherlink.com 1.10,2013-04-10 13:11:00,
2013-04-10 09:26:00,51.4,50.0,29.81,NNE,31,3.0,7.0,96,0.03,,,0.04,weatherlink.com 1.10,2013-04-10 13:26:00,
2013-04-10 09:41:00,51.7,51.0,29.81,ENE,65,5.0,9.0,96,0.03,,,0.04,weatherlink.com 1.10,2013-04-10 13:41:00,
2013-04-10 09:56:00,51.5,50.0,29.81,ESE,107,5.0,10.0,96,0.01,,,0.04,weatherlink.com 1.10,2013-04-10 13:56:00,
2013-04-10 10:11:00,51.7,51.0,29.80,East,98,7.0,8.0,96,0.01,,,0.05,weatherlink.com 1.10,2013-04-10 14:11:00,
2013-04-10 10:26:00,51.6,51.0,29.81,ENE,76,4.0,7.0,96,0.01,,,0.05,weatherlink.com 1.10,2013-04-10 14:26:00,
2013-04-10 10:41:00,51.6,51.0,29.81,East,99,5.0,9.0,96,0.02,,,0.06,weatherlink.com 1.10,2013-04-10 14:41:00,
2013-04-10 10:56:00,51.7,51.0,29.81,East,99,8.0,9.0,96,0.02,,,0.06,weatherlink.com 1.10,2013-04-10 14:56:00,
2013-04-10 11:11:00,52.0,51.0,29.81,ESE,105,5.0,8.0,97,0.01,,,0.06,weatherlink.com 1.10,2013-04-10 15:11:00,
2013-04-10 11:26:00,52.5,52.0,29.81,ESE,114,4.0,7.0,97,0.01,,,0.06,weatherlink.com 1.10,2013-04-10 15:26:00,
2013-04-10 11:41:00,52.9,52.0,29.81,ENE,77,5.0,8.0,97,0.00,,,0.06,weatherlink.com 1.10,2013-04-10 15:41:00,
2013-04-10 12:11:00,52.4,51.0,29.82,NNW,329,10.0,12.0,96,0.00,,,0.06,weatherlink.com 1.10,2013-04-10 16:11:00,
2013-04-10 12:41:00,51.0,50.0,29.84,North,360,5.0,10.0,96,0.00,,,0.06,weatherlink.com 1.10,2013-04-10 16:41:00,
2013-04-10 13:11:00,50.8,50.0,29.81,NE,48,5.0,7.0,96,0.00,,,0.06,weatherlink.com 1.10,2013-04-10 17:11:00,
2013-04-10 13:56:00,50.4,49.0,29.81,NNE,23,4.0,9.0,96,0.10,,,0.16,weatherlink.com 1.10,2013-04-10 17:56:00,
2013-04-10 14:11:00,50.3,49.0,29.81,ENE,78,4.0,6.0,96,0.11,,,0.17,weatherlink.com 1.10,2013-04-10 18:11:00,
2013-04-10 14:26:00,50.7,50.0,29.79,SE,126,1.0,6.0,97,0.10,,,0.17,weatherlink.com 1.10,2013-04-10 18:26:00,
2013-04-10 14:56:00,52.2,51.0,29.78,ESE,113,9.0,10.0,97,0.01,,,0.17,weatherlink.com 1.10,2013-04-10 18:56:00,
2013-04-10 15:26:00,53.9,53.0,29.80,North,360,3.0,6.0,97,0.00,,,0.17,weatherlink.com 1.10,2013-04-10 19:26:00,
2013-04-10 15:56:00,54.0,53.0,29.82,NW,321,4.0,5.0,96,0.00,,,0.17,weatherlink.com 1.10,2013-04-10 19:56:00,
2013-04-10 16:11:00,52.8,52.0,29.82,NNW,334,11.0,15.0,95,0.00,,,0.17,weatherlink.com 1.10,2013-04-10 20:11:00,
2013-04-10 16:26:00,50.6,49.0,29.83,NNW,332,8.0,12.0,95,0.01,,,0.18,weatherlink.com 1.10,2013-04-10 20:26:00,
2013-04-10 16:41:00,50.3,49.0,29.86,North,349,6.0,13.0,96,0.03,,,0.20,weatherlink.com 1.10,2013-04-10 20:41:00,
2013-04-10 16:56:00,48.8,48.0,29.86,North,360,10.0,15.0,96,0.08,,,0.25,weatherlink.com 1.10,2013-04-10 20:56:00,
2013-04-10 17:11:00,47.6,47.0,29.82,ENE,60,4.0,11.0,96,0.11,,,0.28,weatherlink.com 1.10,2013-04-10 21:11:00,
2013-04-10 17:26:00,47.3,46.0,29.82,NNE,28,9.0,14.0,96,0.13,,,0.31,weatherlink.com 1.10,2013-04-10 21:26:00,
2013-04-10 17:41:00,46.7,46.0,29.77,NE,44,12.0,14.0,96,0.14,,,0.34,weatherlink.com 1.10,2013-04-10 21:41:00,
2013-04-10 17:56:00,46.3,46.0,29.79,North,360,5.0,12.0,97,0.09,,,0.34,weatherlink.com 1.10,2013-04-10 21:56:00,
2013-04-10 18:11:00,46.1,45.0,29.84,NE,34,2.0,10.0,97,0.06,,,0.34,weatherlink.com 1.10,2013-04-10 22:11:00,
2013-04-10 18:26:00,46.1,45.0,29.86,North,355,3.0,9.0,96,0.02,,,0.34,weatherlink.com 1.10,2013-04-10 22:26:00,
2013-04-10 18:41:00,46.1,45.0,29.86,North,355,5.0,9.0,96,0.00,,,0.34,weatherlink.com 1.10,2013-04-10 22:41:00,
2013-04-10 18:56:00,45.8,45.0,29.85,ENE,74,5.0,9.0,95,0.00,,,0.34,weatherlink.com 1.10,2013-04-10 22:56:00,
2013-04-10 19:11:00,45.9,45.0,29.85,NNE,15,4.0,7.0,96,0.00,,,0.34,weatherlink.com 1.10,2013-04-10 23:11:00,
2013-04-10 19:26:00,45.8,45.0,29.87,North,5,3.0,10.0,96,0.00,,,0.34,weatherlink.com 1.10,2013-04-10 23:26:00,
2013-04-10 19:41:00,45.6,45.0,29.86,NNE,25,3.0,8.0,96,0.00,,,0.34,weatherlink.com 1.10,2013-04-10 23:41:00,
2013-04-10 19:56:00,45.6,45.0,29.86,NNE,25,2.0,9.0,96,0.00,,,0.34,weatherlink.com 1.10,2013-04-10 23:56:00,
2013-04-10 20:11:00,45.7,45.0,29.84,ENE,75,9.0,12.0,96,0.00,,,0.34,weatherlink.com 1.10,2013-04-11 00:11:00,
2013-04-10 20:26:00,45.8,45.0,29.86,ESE,112,10.0,11.0,96,0.00,,,0.34,weatherlink.com 1.10,2013-04-11 00:26:00,
2013-04-10 20:42:00,45.9,45.0,29.87,ENE,72,8.0,9.0,96,0.01,,,0.35,weatherlink.com 1.10,2013-04-11 00:42:00,
2013-04-10 20:56:00,45.8,45.0,29.82,East,96,13.0,18.0,96,0.04,,,0.38,weatherlink.com 1.10,2013-04-11 00:56:00,
2013-04-10 21:26:00,45.7,45.0,29.81,ESE,108,10.0,21.0,96,0.09,,,0.43,weatherlink.com 1.10,2013-04-11 01:26:00,
2013-04-10 21:41:00,45.8,45.0,29.80,ENE,66,12.0,16.0,96,0.08,,,0.43,weatherlink.com 1.10,2013-04-11 01:41:00,
2013-04-10 21:57:00,45.7,45.0,29.81,ENE,76,11.0,15.0,96,0.04,,,0.43,weatherlink.com 1.10,2013-04-11 01:57:00,
2013-04-10 22:12:00,45.8,45.0,29.84,East,95,10.0,12.0,97,0.00,,,0.43,weatherlink.com 1.10,2013-04-11 02:12:00,
2013-04-10 22:27:00,45.6,45.0,29.82,NNE,28,9.0,12.0,96,0.00,,,0.43,weatherlink.com 1.10,2013-04-11 02:27:00,
2013-04-10 22:42:00,45.4,45.0,29.84,ESE,118,10.0,15.0,97,0.00,,,0.43,weatherlink.com 1.10,2013-04-11 02:42:00,
2013-04-10 22:57:00,45.4,45.0,29.76,East,96,14.0,23.0,97,0.01,,,0.44,weatherlink.com 1.10,2013-04-11 02:57:00,
2013-04-10 23:12:00,45.2,44.0,29.80,ENE,62,11.0,23.0,97,0.02,,,0.45,weatherlink.com 1.10,2013-04-11 03:12:00,
2013-04-10 23:42:00,45.4,44.0,29.82,NE,54,4.0,14.0,96,0.02,,,0.45,weatherlink.com 1.10,2013-04-11 03:42:00,
2013-04-10 23:57:00,45.3,44.0,29.81,ENE,76,9.0,15.0,96,0.01,,,0.45,weatherlink.com 1.10,2013-04-11 03:57:00,